Terminal Aerodrome Forecast
Issued by NWS

Home | Current Version | Previous Version | Text Only | Print | Product List | Glossary On
Versions: 1 2 3 4 5 6 7 8 9 10 11 12 13 14 15 16 17 18 19
000
FTUS41 KGYX 311120
TAFRKD
TAF
KRKD 311120Z 3112/0112 29015G25KT 1 1/2SM -SN OVC014
     FM311400 33020G30KT P6SM -SHSN BKN035
     FM311900 32018G30KT P6SM SCT050
     FM010100 32010KT P6SM SKC
      AMD LTD TO CLD VIS AND WIND=

USA.gov is the U.S. government's official web portal to all federal, state and local government web resources and services.